createdAt,value
2019-05-05T00:00:50.128Z,82.59
2019-05-05T00:02:08.402Z,82.62
2019-05-05T00:03:24.997Z,82.41
2019-05-05T00:04:45.323Z,82.32
2019-05-05T00:05:50.372Z,82.14
2019-05-05T00:06:54.994Z,81.89
2019-05-05T00:07:59.388Z,81.72
2019-05-05T00:09:05.433Z,81.64
2019-05-05T00:10:12.364Z,81.86
2019-05-05T00:11:35.016Z,82.19
2019-05-05T00:12:52.565Z,82.27
2019-05-05T00:14:10.337Z,82.58
2019-05-05T00:15:34.504Z,82.57
2019-05-05T00:16:40.627Z,82.75
2019-05-05T00:17:45.138Z,82.89
2019-05-05T00:18:50.236Z,82.91
2019-05-05T00:19:55.008Z,83.26
2019-05-05T00:20:59.787Z,83.24
2019-05-05T00:22:04.610Z,83.39
2019-05-05T00:23:09.099Z,83.50
2019-05-05T00:24:15.190Z,83.59
2019-05-05T00:25:20.791Z,83.58
2019-05-05T00:26:25.299Z,83.57
2019-05-05T00:27:30.043Z,83.59
2019-05-05T00:28:35.412Z,83.51
2019-05-05T00:29:40.181Z,83.81
2019-05-05T00:30:44.910Z,83.94
2019-05-05T00:31:49.359Z,84.12
2019-05-05T00:32:54.895Z,84.22
2019-05-05T00:33:59.546Z,84.24
2019-05-05T00:35:07.755Z,84.26
2019-05-05T00:36:14.367Z,84.45
2019-05-05T00:37:19.385Z,84.45
2019-05-05T00:38:24.900Z,84.44
2019-05-05T00:39:29.439Z,84.37
2019-05-05T00:40:35.242Z,84.48
2019-05-05T00:41:39.927Z,84.58
2019-05-05T00:42:45.593Z,84.64
2019-05-05T00:43:51.615Z,84.87
2019-05-05T00:44:56.069Z,84.89
2019-05-05T00:46:04.828Z,84.85
2019-05-05T00:47:16.960Z,85.01
2019-05-05T00:48:37.880Z,85.13
2019-05-05T00:49:48.539Z,85.18
2019-05-05T00:50:51.829Z,85.12
2019-05-05T00:51:56.425Z,85.19
2019-05-05T00:53:00.847Z,85.20
2019-05-05T00:54:05.286Z,85.32
2019-05-05T00:55:09.885Z,85.49
2019-05-05T00:56:14.532Z,85.54
2019-05-05T00:57:18.947Z,85.51
2019-05-05T00:58:24.732Z,85.52
2019-05-05T00:59:30.583Z,85.69
2019-05-05T01:00:45.937Z,85.71
2019-05-05T01:01:52.290Z,85.53
2019-05-05T01:02:56.992Z,85.36
2019-05-05T01:04:02.004Z,85.30
2019-05-05T01:05:25.811Z,85.23
2019-05-05T01:06:32.163Z,85.27
2019-05-05T01:07:36.606Z,85.45
2019-05-05T01:08:41.027Z,85.39
2019-05-05T01:09:46.127Z,85.38
2019-05-05T01:10:51.549Z,85.63
2019-05-05T01:11:56.050Z,85.70
2019-05-05T01:13:00.489Z,85.69
2019-05-05T01:14:05.223Z,85.60
2019-05-05T01:15:09.731Z,85.79
2019-05-05T01:16:15.226Z,86.04
2019-05-05T01:17:19.694Z,86.09
2019-05-05T01:18:25.116Z,86.09
2019-05-05T01:19:29.568Z,85.99
2019-05-05T01:20:35.008Z,85.80
2019-05-05T01:21:39.442Z,86.21
2019-05-05T01:22:44.875Z,86.09
2019-05-05T01:23:49.688Z,86.22
2019-05-05T01:24:55.429Z,86.33
2019-05-05T01:26:01.410Z,86.33
2019-05-05T01:27:05.916Z,86.47
2019-05-05T01:28:10.344Z,86.40
2019-05-05T01:29:14.943Z,86.45
2019-05-05T01:30:22.153Z,86.30
2019-05-05T01:31:26.744Z,86.32
2019-05-05T01:32:38.795Z,86.28
2019-05-05T01:33:45.827Z,86.31
2019-05-05T01:34:50.256Z,86.37
2019-05-05T01:35:55.292Z,86.29
2019-05-05T01:37:01.318Z,86.17
2019-05-05T01:38:07.477Z,86.09
2019-05-05T01:39:30.561Z,86.20
2019-05-05T01:40:36.631Z,86.28
2019-05-05T01:41:45.923Z,86.58
2019-05-05T01:42:50.354Z,86.24
2019-05-05T01:43:54.849Z,86.36
2019-05-05T01:44:59.284Z,86.43
2019-05-05T01:46:05.056Z,86.19
2019-05-05T01:47:10.006Z,86.49
2019-05-05T01:48:14.440Z,86.31
2019-05-05T01:49:19.209Z,86.75
2019-05-05T01:50:24.876Z,86.58
2019-05-05T01:51:29.900Z,86.57
2019-05-05T01:52:34.520Z,86.61
2019-05-05T01:53:39.034Z,86.49
2019-05-05T01:54:44.658Z,86.65
2019-05-05T01:55:49.667Z,86.73
2019-05-05T01:56:55.586Z,86.65
2019-05-05T01:58:00.730Z,86.64
2019-05-05T01:59:05.441Z,86.68
2019-05-05T02:00:10.278Z,86.75
2019-05-05T02:01:15.334Z,86.78
2019-05-05T02:02:19.774Z,86.57
2019-05-05T02:03:24.491Z,86.71
2019-05-05T02:04:28.944Z,86.79
2019-05-05T02:05:34.875Z,86.89
2019-05-05T02:06:39.901Z,87.05
2019-05-05T02:07:45.012Z,87.14
2019-05-05T02:08:49.539Z,87.11
2019-05-05T02:09:55.359Z,87.05
2019-05-05T02:11:00.889Z,87.00
2019-05-05T02:12:05.452Z,86.95
2019-05-05T02:13:09.844Z,86.97
2019-05-05T02:14:15.597Z,87.00
2019-05-05T02:15:20.140Z,87.17
2019-05-05T02:16:25.405Z,87.22
2019-05-05T02:17:31.236Z,87.58
2019-05-05T02:18:35.669Z,87.62
2019-05-05T02:19:40.115Z,87.70
2019-05-05T02:20:54.337Z,87.79
2019-05-05T02:21:58.843Z,87.89
2019-05-05T02:23:04.688Z,87.92
2019-05-05T02:24:09.547Z,88.05
2019-05-05T02:25:14.626Z,88.09
2019-05-05T02:26:19.134Z,88.25
2019-05-05T02:27:25.242Z,88.33
2019-05-05T02:28:31.971Z,88.38
2019-05-05T02:29:44.644Z,88.23
2019-05-05T02:30:51.290Z,88.28
2019-05-05T02:32:15.790Z,88.31
2019-05-05T02:33:20.871Z,88.33
2019-05-05T02:34:26.645Z,88.42
2019-05-05T02:35:31.073Z,88.39
2019-05-05T02:36:35.828Z,88.24
2019-05-05T02:37:40.273Z,88.27
2019-05-05T02:38:46.312Z,88.30
2019-05-05T02:39:58.939Z,88.30
2019-05-05T02:40:58.288Z,88.14
2019-05-05T02:42:05.744Z,88.13
2019-05-05T02:43:09.660Z,88.03
2019-05-05T02:44:15.480Z,88.03
2019-05-05T02:45:28.759Z,88.13
2019-05-05T02:46:40.674Z,88.21
2019-05-05T02:47:47.436Z,88.36
2019-05-05T02:48:55.382Z,88.38
2019-05-05T02:50:05.269Z,88.41
2019-05-05T02:51:09.507Z,88.55
2019-05-05T02:52:15.247Z,88.41
2019-05-05T02:53:21.170Z,88.33
2019-05-05T02:54:25.610Z,88.34
2019-05-05T02:55:32.766Z,88.40
2019-05-05T02:56:47.762Z,88.38
2019-05-05T02:57:54.331Z,88.39
2019-05-05T02:59:01.650Z,88.49
2019-05-05T03:00:13.475Z,88.61
2019-05-05T03:01:29.593Z,88.67
2019-05-05T03:02:35.805Z,88.70
2019-05-05T03:03:40.664Z,88.80
2019-05-05T03:04:45.755Z,88.92
2019-05-05T03:05:50.936Z,88.92
2019-05-05T03:06:56.705Z,88.83
2019-05-05T03:08:02.098Z,88.82
2019-05-05T03:09:07.277Z,88.88
2019-05-05T03:10:14.101Z,88.77
2019-05-05T03:11:18.763Z,88.67
2019-05-05T03:12:25.107Z,88.62
2019-05-05T03:13:33.710Z,88.69
2019-05-05T03:14:40.115Z,88.78
2019-05-05T03:15:54.978Z,88.93
2019-05-05T03:17:00.227Z,88.83
2019-05-05T03:18:04.749Z,88.67
2019-05-05T03:19:10.639Z,88.63
2019-05-05T03:20:16.131Z,88.68
2019-05-05T03:21:21.611Z,88.85
2019-05-05T03:22:27.111Z,88.89
2019-05-05T03:23:33.438Z,88.88
2019-05-05T03:24:38.308Z,88.98
2019-05-05T03:25:44.000Z,89.00
2019-05-05T03:26:49.555Z,89.03
2019-05-05T03:27:54.013Z,88.99
2019-05-05T03:29:00.439Z,89.05
2019-05-05T03:30:06.210Z,89.01
2019-05-05T03:31:11.686Z,89.00
2019-05-05T03:32:16.519Z,88.91
2019-05-05T03:33:24.828Z,88.91
2019-05-05T03:34:28.022Z,88.91
2019-05-05T03:35:34.434Z,88.91
2019-05-05T03:36:38.652Z,88.94
2019-05-05T03:37:44.609Z,88.93
2019-05-05T03:38:51.059Z,89.01
2019-05-05T03:39:57.399Z,89.09
2019-05-05T03:41:03.840Z,88.99
2019-05-05T03:42:10.772Z,88.96
2019-05-05T03:43:26.557Z,88.94
2019-05-05T03:44:33.638Z,89.02
2019-05-05T03:45:44.520Z,89.10
2019-05-05T03:46:50.059Z,89.11
2019-05-05T03:47:54.703Z,89.15
2019-05-05T03:48:59.502Z,89.11
2019-05-05T03:50:06.694Z,89.03
2019-05-05T03:51:18.798Z,88.99
2019-05-05T03:52:17.599Z,88.92
2019-05-05T03:53:24.586Z,88.75
2019-05-05T03:54:30.546Z,88.63
2019-05-05T03:55:35.923Z,88.65
2019-05-05T03:56:40.808Z,88.77
2019-05-05T03:57:45.587Z,88.98
2019-05-05T03:58:50.691Z,89.08
2019-05-05T03:59:55.486Z,89.26
2019-05-05T04:01:38.136Z,89.38
2019-05-05T04:02:44.586Z,89.42
2019-05-05T04:03:50.356Z,89.26
2019-05-05T04:04:56.450Z,89.19
2019-05-05T04:06:05.218Z,89.13
2019-05-05T04:07:09.669Z,89.14
2019-05-05T04:08:14.528Z,89.10
2019-05-05T04:09:19.335Z,89.13
2019-05-05T04:10:24.486Z,89.06
2019-05-05T04:11:29.099Z,89.09
2019-05-05T04:12:34.594Z,89.06
2019-05-05T04:13:40.093Z,89.08
2019-05-05T04:14:46.359Z,89.11
2019-05-05T04:16:13.501Z,89.15
2019-05-05T04:17:24.384Z,89.02
2019-05-05T04:18:29.851Z,88.93
2019-05-05T04:19:43.631Z,88.86
2019-05-05T04:20:48.489Z,88.83
2019-05-05T04:21:53.666Z,88.86
2019-05-05T04:22:58.441Z,88.72
2019-05-05T04:24:04.074Z,88.54
2019-05-05T04:25:08.544Z,88.41
2019-05-05T04:26:14.226Z,88.25
2019-05-05T04:27:18.821Z,88.41
2019-05-05T04:28:24.060Z,88.32
2019-05-05T04:29:28.570Z,88.22
2019-05-05T04:30:33.853Z,88.08
2019-05-05T04:31:38.484Z,88.00
2019-05-05T04:32:43.913Z,87.95
2019-05-05T04:33:48.997Z,87.90
2019-05-05T04:34:54.343Z,87.80
2019-05-05T04:35:58.893Z,87.25
2019-05-05T04:37:04.208Z,86.24
2019-05-05T04:38:08.718Z,85.43
2019-05-05T04:39:14.427Z,84.80
2019-05-05T04:40:18.996Z,84.38
2019-05-05T04:41:24.568Z,83.97
2019-05-05T04:42:29.008Z,83.71
2019-05-05T04:43:33.902Z,83.78
2019-05-05T04:44:38.854Z,83.70
2019-05-05T04:45:43.652Z,83.23
2019-05-05T04:46:49.866Z,83.06
2019-05-05T04:47:55.938Z,82.39
2019-05-05T04:49:05.272Z,81.59
2019-05-05T04:50:23.897Z,81.15
2019-05-05T04:51:44.015Z,80.30
2019-05-05T04:52:36.558Z,80.99
2019-05-05T04:53:46.316Z,81.58
2019-05-05T04:54:52.831Z,82.20
2019-05-05T04:55:57.284Z,82.70
2019-05-05T04:57:01.752Z,82.82
2019-05-05T04:58:06.191Z,83.12
2019-05-05T04:59:11.003Z,83.18
2019-05-05T05:00:15.880Z,83.42
2019-05-05T05:01:20.326Z,83.43
2019-05-05T05:02:35.196Z,83.40
2019-05-05T05:03:41.274Z,83.35
2019-05-05T05:04:53.578Z,83.17
2019-05-05T05:05:59.784Z,83.13
2019-05-05T05:07:07.678Z,83.01
2019-05-05T05:08:13.916Z,82.94
2019-05-05T05:09:18.235Z,82.73
2019-05-05T05:10:24.074Z,82.78
2019-05-05T05:11:29.733Z,82.63
2019-05-05T05:12:35.873Z,82.59
2019-05-05T05:13:40.617Z,82.57
2019-05-05T05:14:45.070Z,82.67
2019-05-05T05:15:49.790Z,82.48
2019-05-05T05:16:55.012Z,82.35
2019-05-05T05:18:04.177Z,82.26
2019-05-05T05:19:08.690Z,81.86
2019-05-05T05:20:14.274Z,81.66
2019-05-05T05:21:18.750Z,81.46
2019-05-05T05:22:24.372Z,81.31
2019-05-05T05:23:29.756Z,81.03
2019-05-05T05:24:34.485Z,81.34
2019-05-05T05:25:38.900Z,81.40
2019-05-05T05:26:44.184Z,80.71
2019-05-05T05:27:48.871Z,80.46
2019-05-05T05:28:53.893Z,80.34
2019-05-05T05:29:58.441Z,80.08
2019-05-05T05:31:03.906Z,79.91
2019-05-05T05:32:08.417Z,79.75
2019-05-05T05:33:14.869Z,79.62
2019-05-05T05:34:19.297Z,79.43
2019-05-05T05:35:24.367Z,79.14
2019-05-05T05:36:29.112Z,78.96
2019-05-05T05:37:34.276Z,78.68
2019-05-05T05:38:38.959Z,78.64
2019-05-05T05:39:45.029Z,78.34
2019-05-05T05:40:53.779Z,78.34
2019-05-05T05:41:58.313Z,78.07
2019-05-05T05:43:04.834Z,77.93
2019-05-05T05:44:10.978Z,77.40
2019-05-05T05:45:23.835Z,76.94
2019-05-05T05:46:35.637Z,76.54
2019-05-05T05:47:57.982Z,76.42
2019-05-05T05:49:19.118Z,75.98
2019-05-05T05:50:34.125Z,75.48
2019-05-05T05:51:38.562Z,75.67
2019-05-05T05:52:43.685Z,75.36
2019-05-05T05:53:48.316Z,74.82
2019-05-05T05:54:53.550Z,74.80
2019-05-05T05:55:58.180Z,75.22
2019-05-05T05:57:04.334Z,74.55
2019-05-05T05:58:08.906Z,74.05
2019-05-05T05:59:14.137Z,73.48
2019-05-05T06:00:19.019Z,73.81
2019-05-05T06:01:24.016Z,73.75
2019-05-05T06:02:28.577Z,73.46
2019-05-05T06:03:33.915Z,73.30
2019-05-05T06:04:39.589Z,73.52
2019-05-05T06:05:44.302Z,73.39
2019-05-05T06:06:49.056Z,74.06
2019-05-05T06:07:54.451Z,74.26
2019-05-05T06:09:00.114Z,73.14
2019-05-05T06:10:05.595Z,72.94
2019-05-05T06:11:10.117Z,73.16
2019-05-05T06:12:14.582Z,72.50
2019-05-05T06:13:19.038Z,72.46
2019-05-05T06:14:24.713Z,72.00
2019-05-05T06:15:29.219Z,73.06
2019-05-05T06:16:34.233Z,71.65
2019-05-05T06:17:38.856Z,71.79
2019-05-05T06:18:43.754Z,72.36
2019-05-05T06:19:48.206Z,72.06
2019-05-05T06:20:53.743Z,70.25
2019-05-05T06:21:58.324Z,71.01
2019-05-05T06:23:04.110Z,70.48
2019-05-05T06:24:08.976Z,70.51
2019-05-05T06:25:16.009Z,70.03
2019-05-05T06:26:19.968Z,69.58
2019-05-05T06:27:24.430Z,70.12
2019-05-05T06:28:28.855Z,69.07
2019-05-05T06:29:34.512Z,68.90
2019-05-05T06:30:39.106Z,67.36
2019-05-05T06:31:44.746Z,68.21
2019-05-05T06:32:49.364Z,68.45
2019-05-05T06:33:54.352Z,67.55
2019-05-05T06:34:58.894Z,67.15
2019-05-05T06:36:03.753Z,67.96
2019-05-05T06:37:08.632Z,68.04
2019-05-05T06:38:13.758Z,67.71
2019-05-05T06:39:18.202Z,65.69
2019-05-05T06:40:25.709Z,63.89
2019-05-05T06:41:40.528Z,62.60
2019-05-05T06:42:46.619Z,64.96
2019-05-05T06:44:03.698Z,64.08
2019-05-05T06:45:23.860Z,62.68
2019-05-05T06:46:30.922Z,63.44
2019-05-05T06:47:38.115Z,61.96
2019-05-05T06:48:43.856Z,58.50
2019-05-05T06:49:48.421Z,59.59
2019-05-05T06:50:54.450Z,59.44
2019-05-05T06:52:00.240Z,59.54
2019-05-05T06:53:04.735Z,57.58
2019-05-05T06:54:09.339Z,59.14
2019-05-05T06:55:14.230Z,60.27
2019-05-05T06:56:18.643Z,59.58
2019-05-05T06:57:24.014Z,60.67
2019-05-05T06:58:28.604Z,60.23
2019-05-05T06:59:35.014Z,61.55
2019-05-05T07:00:40.643Z,60.30
2019-05-05T07:01:50.149Z,61.84
2019-05-05T07:02:59.455Z,61.18
2019-05-05T07:04:05.851Z,60.08
2019-05-05T07:05:10.637Z,58.24
2019-05-05T07:06:15.067Z,59.49
2019-05-05T07:07:19.495Z,59.11
2019-05-05T07:08:24.498Z,60.15
2019-05-05T07:09:29.081Z,58.09
2019-05-05T07:10:33.994Z,59.04
2019-05-05T07:11:38.715Z,59.21
2019-05-05T07:12:43.995Z,55.71
2019-05-05T07:13:48.900Z,55.48
2019-05-05T07:14:54.383Z,56.56
2019-05-05T07:15:58.821Z,56.86
2019-05-05T07:17:05.076Z,57.27
2019-05-05T07:18:09.405Z,56.65
2019-05-05T07:19:14.686Z,58.09
2019-05-05T07:20:19.165Z,55.65
2019-05-05T07:21:23.910Z,56.59
2019-05-05T07:22:28.366Z,56.87
2019-05-05T07:23:34.138Z,55.08
2019-05-05T07:24:38.762Z,55.09
2019-05-05T07:25:45.926Z,58.43
2019-05-05T07:26:49.778Z,54.75
2019-05-05T07:27:54.697Z,53.64
2019-05-05T07:29:04.450Z,52.54
2019-05-05T07:30:08.868Z,52.95
2019-05-05T07:31:14.326Z,52.96
2019-05-05T07:32:18.880Z,52.09
2019-05-05T07:33:23.866Z,52.38
2019-05-05T07:34:29.986Z,50.73
2019-05-05T07:35:52.480Z,50.73
2019-05-05T07:36:46.469Z,51.44
2019-05-05T07:37:50.917Z,52.06
2019-05-05T07:38:55.342Z,51.30
2019-05-05T07:40:00.086Z,51.30
2019-05-05T07:41:04.518Z,50.98
2019-05-05T07:42:09.216Z,49.60
2019-05-05T07:43:14.624Z,50.57
2019-05-05T07:44:26.644Z,51.77
2019-05-05T07:45:26.288Z,51.86
2019-05-05T07:46:30.994Z,51.44
2019-05-05T07:47:35.450Z,51.44
2019-05-05T07:48:41.261Z,50.63
2019-05-05T07:49:45.735Z,51.46
2019-05-05T07:50:59.800Z,50.74
2019-05-05T07:51:56.390Z,50.45
2019-05-05T07:53:13.916Z,50.45
2019-05-05T07:54:07.096Z,48.61
2019-05-05T07:55:11.717Z,49.63
2019-05-05T07:56:16.458Z,47.63
2019-05-05T07:57:20.906Z,47.88
2019-05-05T07:58:25.649Z,47.11
2019-05-05T07:59:30.171Z,48.83
2019-05-05T08:00:34.622Z,47.75
2019-05-05T08:01:39.429Z,47.79
2019-05-05T08:02:44.042Z,47.11
2019-05-05T08:03:49.751Z,47.38
2019-05-05T08:04:54.564Z,47.38
2019-05-05T08:05:59.045Z,46.09
2019-05-05T08:07:04.062Z,46.90
2019-05-05T08:08:09.924Z,47.01
2019-05-05T08:09:14.781Z,46.53
2019-05-05T08:10:19.523Z,47.77
2019-05-05T08:11:24.019Z,47.77
2019-05-05T08:12:28.556Z,46.14
2019-05-05T08:13:33.672Z,47.34
2019-05-05T08:14:38.089Z,46.55
2019-05-05T08:15:56.258Z,46.12
2019-05-05T08:17:09.924Z,45.23
2019-05-05T08:18:24.180Z,44.82
2019-05-05T08:19:43.892Z,44.99
2019-05-05T08:21:04.084Z,45.56
2019-05-05T08:22:09.252Z,46.36
2019-05-05T08:23:29.230Z,44.91
2019-05-05T08:24:24.416Z,46.15
2019-05-05T08:25:40.172Z,47.19
2019-05-05T08:26:46.963Z,47.19
2019-05-05T08:27:53.716Z,44.38
2019-05-05T08:28:59.957Z,42.66
2019-05-05T08:30:17.513Z,45.22
2019-05-05T08:31:24.974Z,44.56
2019-05-05T08:32:35.690Z,43.39
2019-05-05T08:33:40.515Z,41.31
2019-05-05T08:34:56.866Z,42.40
2019-05-05T08:35:54.135Z,42.72
2019-05-05T08:37:01.506Z,43.63
2019-05-05T08:38:06.655Z,45.32
2019-05-05T08:39:14.299Z,43.55
2019-05-05T08:40:18.990Z,42.42
2019-05-05T08:41:24.398Z,42.74
2019-05-05T08:42:33.990Z,40.35
2019-05-05T08:43:38.760Z,42.22
2019-05-05T08:44:44.723Z,38.85
2019-05-05T08:45:49.829Z,39.88
2019-05-05T08:46:54.587Z,43.22
2019-05-05T08:48:04.757Z,43.53
2019-05-05T08:49:13.605Z,40.93
2019-05-05T08:50:19.231Z,40.69
2019-05-05T08:51:30.215Z,36.65
2019-05-05T08:52:34.657Z,40.46
2019-05-05T08:53:48.419Z,38.03
2019-05-05T08:54:54.585Z,38.68
2019-05-05T08:55:59.044Z,39.30
2019-05-05T08:57:04.325Z,41.08
2019-05-05T08:58:10.207Z,39.30
2019-05-05T08:59:14.639Z,37.87
2019-05-05T09:00:19.875Z,38.54
2019-05-05T09:01:24.344Z,39.66
2019-05-05T09:02:29.045Z,38.73
2019-05-05T09:03:33.727Z,37.39
2019-05-05T09:04:38.185Z,38.18
2019-05-05T09:05:43.771Z,38.55
2019-05-05T09:06:48.712Z,38.26
2019-05-05T09:07:54.788Z,37.83
2019-05-05T09:08:59.559Z,37.83
2019-05-05T09:10:05.033Z,38.99
2019-05-05T09:11:09.780Z,37.08
2019-05-05T09:12:14.308Z,37.73
2019-05-05T09:13:19.027Z,38.88
2019-05-05T09:14:24.047Z,40.12
2019-05-05T09:15:28.790Z,40.55
2019-05-05T09:16:33.583Z,38.47
2019-05-05T09:17:38.002Z,39.33
2019-05-05T09:18:59.209Z,38.10
2019-05-05T09:20:04.522Z,39.20
2019-05-05T09:21:09.578Z,36.43
2019-05-05T09:22:14.144Z,36.22
2019-05-05T09:23:18.689Z,36.35
2019-05-05T09:24:25.040Z,37.92
2019-05-05T09:25:46.966Z,38.93
2019-05-05T09:26:55.743Z,39.84
2019-05-05T09:28:07.537Z,40.07
2019-05-05T09:29:25.981Z,40.14
2019-05-05T09:30:40.274Z,40.68
2019-05-05T09:31:46.126Z,39.60
2019-05-05T09:32:50.778Z,39.13
2019-05-05T09:33:55.209Z,41.13
2019-05-05T09:34:59.981Z,39.14
2019-05-05T09:36:04.821Z,40.53
2019-05-05T09:37:09.307Z,38.87
2019-05-05T09:38:14.721Z,39.95
2019-05-05T09:39:19.548Z,34.81
2019-05-05T09:40:40.973Z,34.57
2019-05-05T09:41:44.728Z,33.38
2019-05-05T09:42:49.108Z,34.09
2019-05-05T09:43:54.000Z,33.77
2019-05-05T09:44:58.722Z,32.92
2019-05-05T09:46:03.944Z,31.95
2019-05-05T09:47:08.800Z,32.08
2019-05-05T09:48:14.014Z,34.85
2019-05-05T09:49:18.624Z,34.78
2019-05-05T09:50:23.780Z,34.10
2019-05-05T09:51:28.316Z,36.00
2019-05-05T09:52:33.800Z,32.85
2019-05-05T09:53:38.310Z,34.45
2019-05-05T09:54:43.873Z,35.95
2019-05-05T09:55:48.724Z,31.99
2019-05-05T09:56:53.862Z,31.62
2019-05-05T09:57:58.693Z,31.94
2019-05-05T09:59:03.811Z,31.64
2019-05-05T10:00:10.581Z,33.34
2019-05-05T10:01:15.086Z,34.19
2019-05-05T10:02:19.529Z,32.90
2019-05-05T10:03:24.025Z,34.91
2019-05-05T10:04:29.497Z,33.97
2019-05-05T10:05:34.324Z,33.36
2019-05-05T10:06:40.691Z,34.91
2019-05-05T10:07:45.145Z,37.04
2019-05-05T10:08:49.862Z,34.84
2019-05-05T10:09:54.585Z,35.30
2019-05-05T10:10:59.302Z,36.25
2019-05-05T10:12:04.813Z,36.17
2019-05-05T10:13:09.486Z,35.76
2019-05-05T10:14:14.419Z,37.46
2019-05-05T10:15:19.009Z,37.98
2019-05-05T10:16:23.796Z,37.58
2019-05-05T10:17:28.553Z,37.29
2019-05-05T10:18:35.511Z,37.84
2019-05-05T10:19:39.425Z,38.29
2019-05-05T10:20:44.155Z,38.83
2019-05-05T10:21:49.568Z,38.75
2019-05-05T10:22:54.348Z,38.38
2019-05-05T10:24:00.840Z,37.66
2019-05-05T10:25:26.546Z,37.93
2019-05-05T10:26:30.987Z,37.54
2019-05-05T10:27:44.347Z,38.33
2019-05-05T10:28:41.744Z,36.81
2019-05-05T10:29:46.458Z,36.24
2019-05-05T10:30:51.034Z,36.03
2019-05-05T10:31:55.490Z,34.79
2019-05-05T10:32:59.936Z,34.42
2019-05-05T10:34:06.122Z,34.97
2019-05-05T10:35:11.484Z,32.11
2019-05-05T10:36:16.833Z,31.50
2019-05-05T10:37:23.414Z,31.16
2019-05-05T10:38:27.436Z,31.01
2019-05-05T10:39:37.424Z,31.62
2019-05-05T10:40:44.673Z,31.01
2019-05-05T10:41:49.540Z,29.88
2019-05-05T10:42:54.279Z,30.89
2019-05-05T10:43:58.740Z,29.45
2019-05-05T10:45:04.435Z,30.96
2019-05-05T10:46:09.879Z,31.90
2019-05-05T10:47:14.579Z,31.20
2019-05-05T10:48:19.335Z,32.33
2019-05-05T10:49:24.387Z,33.39
2019-05-05T10:50:28.969Z,33.33
2019-05-05T10:51:34.565Z,34.15
2019-05-05T10:52:39.128Z,34.68
2019-05-05T10:53:43.941Z,34.97
2019-05-05T10:54:48.451Z,34.17
2019-05-05T10:55:53.932Z,35.58
2019-05-05T10:56:59.877Z,35.55
2019-05-05T10:58:04.388Z,34.74
2019-05-05T10:59:08.865Z,35.60
2019-05-05T11:00:16.024Z,35.37
2019-05-05T11:01:20.465Z,35.99
2019-05-05T11:02:24.910Z,35.56
2019-05-05T11:03:29.420Z,36.63
2019-05-05T11:04:33.885Z,35.37
2019-05-05T11:05:38.389Z,35.21
2019-05-05T11:06:44.094Z,35.44
2019-05-05T11:07:49.216Z,36.72
2019-05-05T11:08:54.109Z,35.29
2019-05-05T11:09:58.839Z,34.45
2019-05-05T11:11:04.266Z,33.65
2019-05-05T11:12:10.056Z,32.89
2019-05-05T11:13:14.564Z,31.94
2019-05-05T11:14:19.024Z,31.89
2019-05-05T11:15:24.669Z,31.77
2019-05-05T11:16:30.577Z,34.69
2019-05-05T11:17:35.033Z,31.74
2019-05-05T11:18:39.479Z,32.80
2019-05-05T11:19:44.182Z,32.32
2019-05-05T11:20:48.787Z,34.02
2019-05-05T11:21:54.072Z,34.01
2019-05-05T11:22:58.835Z,34.49
2019-05-05T11:24:04.245Z,33.58
2019-05-05T11:25:08.746Z,32.16
2019-05-05T11:26:14.336Z,32.10
2019-05-05T11:27:19.188Z,32.90
2019-05-05T11:28:23.626Z,35.75
2019-05-05T11:29:28.058Z,32.24
2019-05-05T11:30:37.947Z,33.45
2019-05-05T11:31:42.386Z,33.49
2019-05-05T11:33:04.189Z,36.13
2019-05-05T11:34:10.275Z,33.71
2019-05-05T11:35:14.745Z,33.27
2019-05-05T11:36:24.841Z,34.26
2019-05-05T11:37:29.444Z,33.20
2019-05-05T11:38:34.034Z,33.57
2019-05-05T11:39:39.458Z,34.91
2019-05-05T11:40:44.081Z,33.58
2019-05-05T11:41:48.852Z,30.90
2019-05-05T11:42:54.138Z,33.64
2019-05-05T11:43:58.620Z,27.08
2019-05-05T11:45:04.275Z,27.82
2019-05-05T11:46:08.910Z,27.30
2019-05-05T11:47:13.980Z,27.34
2019-05-05T11:48:18.801Z,27.89
2019-05-05T11:49:24.519Z,28.24
2019-05-05T11:50:29.132Z,33.42
2019-05-05T11:51:34.202Z,29.46
2019-05-05T11:52:38.792Z,31.64
2019-05-05T11:53:44.741Z,32.15
2019-05-05T11:54:49.417Z,32.77
2019-05-05T11:55:54.964Z,30.44
2019-05-05T11:56:59.890Z,30.75
2019-05-05T11:58:04.502Z,30.95
2019-05-05T11:59:09.020Z,32.98
2019-05-05T12:00:14.212Z,37.70
2019-05-05T12:01:19.059Z,37.06
2019-05-05T12:02:24.405Z,34.47
2019-05-05T12:03:29.410Z,35.14
2019-05-05T12:04:35.374Z,36.57
2019-05-05T12:05:39.961Z,35.25
2019-05-05T12:06:44.759Z,35.35
2019-05-05T12:07:49.492Z,33.95
2019-05-05T12:08:54.275Z,34.67
2019-05-05T12:09:58.846Z,37.31
2019-05-05T12:11:05.518Z,35.94
2019-05-05T12:12:10.142Z,34.26
2019-05-05T12:13:15.204Z,36.55
2019-05-05T12:14:24.426Z,35.83
2019-05-05T12:15:28.524Z,34.97
2019-05-05T12:16:34.697Z,35.77
2019-05-05T12:17:39.433Z,36.26
2019-05-05T12:18:44.862Z,36.43
2019-05-05T12:19:49.606Z,38.32
2019-05-05T12:20:54.484Z,33.72
2019-05-05T12:21:59.289Z,33.54
2019-05-05T12:23:05.769Z,35.90
2019-05-05T12:24:14.198Z,34.16
2019-05-05T12:25:36.042Z,34.06
2019-05-05T12:26:54.378Z,36.60
2019-05-05T12:28:00.558Z,34.60
2019-05-05T12:29:06.678Z,35.25
2019-05-05T12:30:11.394Z,34.53
2019-05-05T12:31:26.683Z,36.08
2019-05-05T12:32:31.225Z,34.09
2019-05-05T12:33:35.651Z,34.32
2019-05-05T12:34:41.198Z,33.26
2019-05-05T12:35:45.957Z,33.51
2019-05-05T12:36:50.773Z,32.67
2019-05-05T12:37:55.316Z,32.59
2019-05-05T12:39:00.684Z,32.59
2019-05-05T12:40:08.291Z,33.12
2019-05-05T12:41:14.744Z,34.66
2019-05-05T12:42:19.345Z,32.06
2019-05-05T12:43:24.663Z,31.50
2019-05-05T12:44:33.976Z,35.62
2019-05-05T12:45:39.946Z,35.00
2019-05-05T12:46:47.497Z,33.77
2019-05-05T12:48:13.344Z,31.31
2019-05-05T12:49:18.195Z,31.74
2019-05-05T12:50:24.604Z,31.64
2019-05-05T12:51:29.196Z,32.16
2019-05-05T12:52:33.684Z,33.70
2019-05-05T12:53:38.160Z,33.42
2019-05-05T12:54:44.085Z,32.45
2019-05-05T12:55:48.917Z,33.96
2019-05-05T12:56:54.054Z,33.64
2019-05-05T12:57:58.600Z,33.56
2019-05-05T12:59:05.218Z,32.24
2019-05-05T13:00:14.509Z,34.13
2019-05-05T13:01:28.964Z,31.11
2019-05-05T13:02:33.878Z,30.81
2019-05-05T13:03:38.333Z,32.82
2019-05-05T13:04:43.212Z,31.39
2019-05-05T13:05:47.884Z,30.80
2019-05-05T13:06:54.019Z,32.10
2019-05-05T13:07:59.046Z,30.16
2019-05-05T13:09:05.653Z,33.02
2019-05-05T13:10:14.100Z,33.04
2019-05-05T13:11:19.063Z,32.66
2019-05-05T13:12:24.041Z,34.06
2019-05-05T13:13:29.129Z,35.51
2019-05-05T13:14:34.038Z,35.79
2019-05-05T13:15:39.943Z,33.79
2019-05-05T13:16:52.750Z,33.88
2019-05-05T13:17:50.784Z,36.24
2019-05-05T13:18:55.214Z,35.39
2019-05-05T13:20:01.312Z,35.74
2019-05-05T13:21:16.522Z,35.45
2019-05-05T13:22:25.402Z,36.19
2019-05-05T13:23:34.047Z,36.00
2019-05-05T13:24:47.149Z,36.91
2019-05-05T13:25:56.770Z,37.06
2019-05-05T13:27:01.359Z,39.33
2019-05-05T13:28:06.136Z,38.21
2019-05-05T13:29:10.575Z,39.14
2019-05-05T13:30:15.165Z,39.13
2019-05-05T13:31:21.807Z,41.54
2019-05-05T13:32:25.719Z,41.22
2019-05-05T13:33:30.208Z,39.95
2019-05-05T13:34:34.925Z,41.47
2019-05-05T13:35:39.362Z,42.43
2019-05-05T13:36:44.871Z,43.47
2019-05-05T13:37:49.313Z,41.87
2019-05-05T13:38:54.524Z,41.95
2019-05-05T13:39:59.093Z,46.58
2019-05-05T13:41:03.812Z,46.02
2019-05-05T13:42:09.491Z,45.24
2019-05-05T13:43:14.440Z,44.74
2019-05-05T13:44:20.605Z,46.10
2019-05-05T13:45:30.091Z,44.62
2019-05-05T13:46:39.085Z,50.69
2019-05-05T13:47:43.732Z,43.72
2019-05-05T13:48:48.231Z,39.92
2019-05-05T13:49:54.356Z,37.27
2019-05-05T13:51:00.742Z,43.48
2019-05-05T13:52:05.440Z,35.55
2019-05-05T13:53:09.880Z,33.20
2019-05-05T13:54:14.765Z,32.43
2019-05-05T13:55:19.420Z,32.99
2019-05-05T13:56:24.583Z,31.42
2019-05-05T13:57:29.019Z,30.65
2019-05-05T13:58:34.296Z,31.85
2019-05-05T13:59:39.145Z,32.26
2019-05-05T14:00:44.188Z,30.99
2019-05-05T14:01:48.710Z,30.10
2019-05-05T14:02:54.551Z,32.27
2019-05-05T14:04:00.147Z,34.39
2019-05-05T14:05:06.653Z,33.23
2019-05-05T14:06:11.165Z,34.86
2019-05-05T14:07:16.072Z,34.63
2019-05-05T14:08:20.580Z,34.15
2019-05-05T14:09:25.104Z,37.10
2019-05-05T14:10:29.585Z,35.62
2019-05-05T14:11:34.713Z,32.63
2019-05-05T14:12:39.172Z,31.97
2019-05-05T14:13:45.506Z,33.52
2019-05-05T14:14:49.815Z,34.72